sensor_id;sensor_type;location;lat;lon;timestamp;pressure;altitude;pressure_sealevel;temperature;humidity
47753;BME280;2038;51.728;6.674;2023-03-24T00:00:05;99328.94;;;13.20;100.00
47753;BME280;2038;51.728;6.674;2023-03-24T00:02:37;99340.03;;;13.20;100.00
47753;BME280;2038;51.728;6.674;2023-03-24T00:05:18;99342.59;;;13.20;100.00
47753;BME280;2038;51.728;6.674;2023-03-24T00:07:47;99336.81;;;13.26;100.00
47753;BME280;2038;51.728;6.674;2023-03-24T00:10:16;99328.25;;;13.25;100.00
47753;BME280;2038;51.728;6.674;2023-03-24T00:12:45;99327.44;;;13.26;100.00
47753;BME280;2038;51.728;6.674;2023-03-24T00:15:16;99322.28;;;13.25;100.00
47753;BME280;2038;51.728;6.674;2023-03-24T00:17:46;99326.72;;;13.30;100.00
47753;BME280;2038;51.728;6.674;2023-03-24T00:20:16;99313.88;;;13.29;100.00
47753;BME280;2038;51.728;6.674;2023-03-24T00:22:46;99312.16;;;13.28;100.00
47753;BME280;2038;51.728;6.674;2023-03-24T00:25:21;99305.38;;;13.30;100.00
47753;BME280;2038;51.728;6.674;2023-03-24T00:27:49;99308.75;;;13.29;100.00
47753;BME280;2038;51.728;6.674;2023-03-24T00:30:17;99296.81;;;13.28;100.00
47753;BME280;2038;51.728;6.674;2023-03-24T00:32:45;99303.47;;;13.24;100.00
47753;BME280;2038;51.728;6.674;2023-03-24T00:35:13;99298.16;;;13.45;100.00
47753;BME280;2038;51.728;6.674;2023-03-24T00:37:41;99287.94;;;13.45;100.00
47753;BME280;2038;51.728;6.674;2023-03-24T00:40:13;99285.34;;;13.43;100.00
47753;BME280;2038;51.728;6.674;2023-03-24T00:42:42;99289.09;;;13.54;100.00
47753;BME280;2038;51.728;6.674;2023-03-24T00:45:12;99279.28;;;13.40;100.00
47753;BME280;2038;51.728;6.674;2023-03-24T00:47:40;99273.59;;;13.50;100.00
47753;BME280;2038;51.728;6.674;2023-03-24T00:50:13;99250.56;;;13.50;100.00
47753;BME280;2038;51.728;6.674;2023-03-24T00:52:42;99254.00;;;13.50;100.00
47753;BME280;2038;51.728;6.674;2023-03-24T00:55:13;99251.78;;;13.63;100.00
47753;BME280;2038;51.728;6.674;2023-03-24T00:57:41;99254.16;;;13.56;100.00
47753;BME280;2038;51.728;6.674;2023-03-24T01:00:17;99249.88;;;13.55;100.00
47753;BME280;2038;51.728;6.674;2023-03-24T01:02:47;99249.16;;;13.59;100.00
47753;BME280;2038;51.728;6.674;2023-03-24T01:05:19;99240.69;;;13.62;100.00
47753;BME280;2038;51.728;6.674;2023-03-24T01:07:47;99236.22;;;13.55;100.00
47753;BME280;2038;51.728;6.674;2023-03-24T01:10:19;99248.19;;;13.56;100.00
47753;BME280;2038;51.728;6.674;2023-03-24T01:12:52;99237.84;;;13.53;100.00
47753;BME280;2038;51.728;6.674;2023-03-24T01:15:22;99233.69;;;13.56;100.00
47753;BME280;2038;51.728;6.674;2023-03-24T01:17:52;99238.13;;;13.62;100.00
47753;BME280;2038;51.728;6.674;2023-03-24T01:20:20;99237.31;;;13.63;100.00
47753;BME280;2038;51.728;6.674;2023-03-24T01:22:49;99234.13;;;13.72;100.00
47753;BME280;2038;51.728;6.674;2023-03-24T01:25:19;99232.06;;;13.60;100.00
47753;BME280;2038;51.728;6.674;2023-03-24T01:27:49;99231.47;;;13.69;100.00
47753;BME280;2038;51.728;6.674;2023-03-24T01:30:20;99225.72;;;13.76;100.00
47753;BME280;2038;51.728;6.674;2023-03-24T01:32:48;99229.84;;;13.72;100.00
47753;BME280;2038;51.728;6.674;2023-03-24T01:35:15;99215.16;;;13.65;100.00
47753;BME280;2038;51.728;6.674;2023-03-24T01:37:41;99217.03;;;13.71;100.00
47753;BME280;2038;51.728;6.674;2023-03-24T01:40:10;99207.78;;;13.76;100.00
47753;BME280;2038;51.728;6.674;2023-03-24T01:42:41;99202.75;;;13.79;100.00
47753;BME280;2038;51.728;6.674;2023-03-24T01:45:38;99198.25;;;13.70;100.00
47753;BME280;2038;51.728;6.674;2023-03-24T01:51:08;99191.38;;;13.69;100.00
47753;BME280;2038;51.728;6.674;2023-03-24T01:54:06;99189.69;;;13.70;100.00
47753;BME280;2038;51.728;6.674;2023-03-24T01:56:41;99183.69;;;13.68;100.00
47753;BME280;2038;51.728;6.674;2023-03-24T01:59:14;99176.84;;;13.68;100.00
47753;BME280;2038;51.728;6.674;2023-03-24T02:01:46;99183.09;;;13.78;100.00
47753;BME280;2038;51.728;6.674;2023-03-24T02:04:14;99166.72;;;13.71;100.00
47753;BME280;2038;51.728;6.674;2023-03-24T02:06:43;99161.72;;;13.77;100.00
47753;BME280;2038;51.728;6.674;2023-03-24T02:09:12;99163.41;;;13.77;100.00
47753;BME280;2038;51.728;6.674;2023-03-24T02:11:40;99148.13;;;13.78;100.00
47753;BME280;2038;51.728;6.674;2023-03-24T02:14:08;99163.63;;;13.84;100.00
47753;BME280;2038;51.728;6.674;2023-03-24T02:28:53;99115.19;;;13.92;100.00
47753;BME280;2038;51.728;6.674;2023-03-24T02:34:35;99113.03;;;14.07;100.00
47753;BME280;2038;51.728;6.674;2023-03-24T02:37:28;99125.75;;;14.04;100.00
47753;BME280;2038;51.728;6.674;2023-03-24T02:40:10;99127.41;;;14.02;100.00
47753;BME280;2038;51.728;6.674;2023-03-24T02:43:08;99123.22;;;14.05;100.00
47753;BME280;2038;51.728;6.674;2023-03-24T02:46:07;99119.59;;;13.97;100.00
47753;BME280;2038;51.728;6.674;2023-03-24T02:57:27;99099.38;;;14.08;100.00
47753;BME280;2038;51.728;6.674;2023-03-24T03:03:26;99103.66;;;14.07;100.00
47753;BME280;2038;51.728;6.674;2023-03-24T03:06:05;99096.31;;;14.23;100.00
47753;BME280;2038;51.728;6.674;2023-03-24T03:08:38;99084.09;;;14.11;100.00
47753;BME280;2038;51.728;6.674;2023-03-24T03:11:11;99090.09;;;14.13;100.00
47753;BME280;2038;51.728;6.674;2023-03-24T03:13:45;99084.34;;;14.22;100.00
47753;BME280;2038;51.728;6.674;2023-03-24T03:16:20;99085.31;;;14.27;100.00
47753;BME280;2038;51.728;6.674;2023-03-24T03:18:54;99082.53;;;14.18;100.00
47753;BME280;2038;51.728;6.674;2023-03-24T03:21:31;99083.50;;;14.23;100.00
47753;BME280;2038;51.728;6.674;2023-03-24T03:24:13;99074.97;;;14.22;100.00
47753;BME280;2038;51.728;6.674;2023-03-24T03:26:45;99081.72;;;14.19;100.00
47753;BME280;2038;51.728;6.674;2023-03-24T03:29:18;99079.16;;;14.19;100.00
47753;BME280;2038;51.728;6.674;2023-03-24T03:31:56;99076.66;;;14.22;100.00
47753;BME280;2038;51.728;6.674;2023-03-24T03:35:08;99067.97;;;14.17;100.00
47753;BME280;2038;51.728;6.674;2023-03-24T03:40:48;99087.06;;;14.28;100.00
47753;BME280;2038;51.728;6.674;2023-03-24T03:43:17;99089.44;;;14.20;100.00
47753;BME280;2038;51.728;6.674;2023-03-24T03:45:44;99073.28;;;14.24;100.00
47753;BME280;2038;51.728;6.674;2023-03-24T03:48:11;99082.78;;;14.28;100.00
47753;BME280;2038;51.728;6.674;2023-03-24T03:50:38;99082.88;;;14.31;100.00
47753;BME280;2038;51.728;6.674;2023-03-24T03:53:07;99081.78;;;14.22;100.00
47753;BME280;2038;51.728;6.674;2023-03-24T03:55:34;99080.03;;;14.21;100.00
47753;BME280;2038;51.728;6.674;2023-03-24T03:58:02;99063.66;;;14.14;100.00
47753;BME280;2038;51.728;6.674;2023-03-24T04:00:30;99067.03;;;14.13;100.00
47753;BME280;2038;51.728;6.674;2023-03-24T04:08:47;99086.06;;;14.23;100.00
47753;BME280;2038;51.728;6.674;2023-03-24T04:11:35;99089.03;;;14.03;100.00
47753;BME280;2038;51.728;6.674;2023-03-24T04:17:21;99117.56;;;14.19;100.00
47753;BME280;2038;51.728;6.674;2023-03-24T04:20:19;99130.28;;;14.14;100.00
47753;BME280;2038;51.728;6.674;2023-03-24T04:23:25;99131.78;;;14.06;100.00
47753;BME280;2038;51.728;6.674;2023-03-24T04:27:04;99137.72;;;14.05;100.00
47753;BME280;2038;51.728;6.674;2023-03-24T04:29:37;99149.66;;;14.04;100.00
47753;BME280;2038;51.728;6.674;2023-03-24T04:35:21;99164.38;;;13.80;100.00
47753;BME280;2038;51.728;6.674;2023-03-24T04:38:03;99171.31;;;13.84;100.00
47753;BME280;2038;51.728;6.674;2023-03-24T04:40:37;99182.81;;;13.69;100.00
47753;BME280;2038;51.728;6.674;2023-03-24T04:43:09;99194.94;;;13.74;100.00
47753;BME280;2038;51.728;6.674;2023-03-24T04:45:42;99226.28;;;13.66;100.00
47753;BME280;2038;51.728;6.674;2023-03-24T04:48:16;99239.16;;;13.40;100.00
47753;BME280;2038;51.728;6.674;2023-03-24T04:51:00;99245.72;;;13.31;100.00
47753;BME280;2038;51.728;6.674;2023-03-24T04:53:28;99248.81;;;13.21;100.00
47753;BME280;2038;51.728;6.674;2023-03-24T04:56:03;99260.56;;;13.14;100.00
47753;BME280;2038;51.728;6.674;2023-03-24T04:58:42;99271.91;;;12.97;100.00
47753;BME280;2038;51.728;6.674;2023-03-24T05:01:08;99273.88;;;12.79;100.00
47753;BME280;2038;51.728;6.674;2023-03-24T05:03:35;99278.03;;;12.75;100.00
47753;BME280;2038;51.728;6.674;2023-03-24T05:06:03;99274.56;;;12.49;100.00
47753;BME280;2038;51.728;6.674;2023-03-24T05:08:32;99297.09;;;12.59;100.00
47753;BME280;2038;51.728;6.674;2023-03-24T05:10:59;99297.69;;;12.52;100.00
47753;BME280;2038;51.728;6.674;2023-03-24T05:13:25;99279.97;;;12.33;100.00
47753;BME280;2038;51.728;6.674;2023-03-24T05:15:54;99298.31;;;12.22;100.00
47753;BME280;2038;51.728;6.674;2023-03-24T05:18:21;99310.63;;;12.09;100.00
47753;BME280;2038;51.728;6.674;2023-03-24T05:20:47;99307.47;;;12.16;100.00
47753;BME280;2038;51.728;6.674;2023-03-24T05:23:14;99313.97;;;12.07;100.00
47753;BME280;2038;51.728;6.674;2023-03-24T05:25:40;99333.84;;;12.15;100.00
47753;BME280;2038;51.728;6.674;2023-03-24T05:28:06;99339.78;;;12.14;100.00
47753;BME280;2038;51.728;6.674;2023-03-24T05:30:32;99336.16;;;12.09;100.00
47753;BME280;2038;51.728;6.674;2023-03-24T05:32:58;99333.03;;;12.16;100.00
47753;BME280;2038;51.728;6.674;2023-03-24T05:35:25;99342.66;;;12.24;100.00
47753;BME280;2038;51.728;6.674;2023-03-24T05:37:51;99340.81;;;12.19;100.00
47753;BME280;2038;51.728;6.674;2023-03-24T05:40:18;99336.00;;;12.05;100.00
47753;BME280;2038;51.728;6.674;2023-03-24T05:42:46;99340.66;;;12.15;100.00
47753;BME280;2038;51.728;6.674;2023-03-24T05:45:14;99347.34;;;12.11;100.00
47753;BME280;2038;51.728;6.674;2023-03-24T05:47:40;99351.22;;;12.02;100.00
47753;BME280;2038;51.728;6.674;2023-03-24T05:50:06;99371.38;;;11.94;100.00
47753;BME280;2038;51.728;6.674;2023-03-24T05:52:34;99364.75;;;11.99;100.00
47753;BME280;2038;51.728;6.674;2023-03-24T05:55:00;99385.63;;;11.89;100.00
47753;BME280;2038;51.728;6.674;2023-03-24T05:57:27;99386.78;;;11.97;100.00
47753;BME280;2038;51.728;6.674;2023-03-24T05:59:56;99394.38;;;11.96;100.00
47753;BME280;2038;51.728;6.674;2023-03-24T06:02:23;99408.84;;;11.95;100.00
47753;BME280;2038;51.728;6.674;2023-03-24T06:04:52;99412.25;;;11.96;100.00
47753;BME280;2038;51.728;6.674;2023-03-24T06:07:18;99405.25;;;11.90;100.00
47753;BME280;2038;51.728;6.674;2023-03-24T06:09:45;99403.38;;;11.86;100.00
47753;BME280;2038;51.728;6.674;2023-03-24T06:12:15;99415.97;;;11.82;100.00
47753;BME280;2038;51.728;6.674;2023-03-24T06:14:42;99415.38;;;11.68;100.00
47753;BME280;2038;51.728;6.674;2023-03-24T06:17:08;99416.72;;;11.79;100.00
47753;BME280;2038;51.728;6.674;2023-03-24T06:19:42;99416.47;;;11.73;100.00
47753;BME280;2038;51.728;6.674;2023-03-24T06:22:15;99410.56;;;11.74;100.00
47753;BME280;2038;51.728;6.674;2023-03-24T06:24:42;99414.03;;;11.76;100.00
47753;BME280;2038;51.728;6.674;2023-03-24T06:27:10;99422.53;;;11.75;100.00
47753;BME280;2038;51.728;6.674;2023-03-24T06:29:39;99425.88;;;11.74;100.00
47753;BME280;2038;51.728;6.674;2023-03-24T06:32:09;99423.75;;;11.85;100.00
47753;BME280;2038;51.728;6.674;2023-03-24T06:34:35;99430.09;;;11.73;100.00
47753;BME280;2038;51.728;6.674;2023-03-24T06:37:03;99428.28;;;11.71;100.00
47753;BME280;2038;51.728;6.674;2023-03-24T06:39:30;99432.66;;;11.73;100.00
47753;BME280;2038;51.728;6.674;2023-03-24T06:41:56;99429.59;;;11.82;100.00
47753;BME280;2038;51.728;6.674;2023-03-24T06:44:22;99434.81;;;11.85;100.00
47753;BME280;2038;51.728;6.674;2023-03-24T06:46:49;99446.47;;;11.79;100.00
47753;BME280;2038;51.728;6.674;2023-03-24T06:49:15;99443.47;;;11.89;100.00
47753;BME280;2038;51.728;6.674;2023-03-24T06:51:41;99439.81;;;11.82;100.00
47753;BME280;2038;51.728;6.674;2023-03-24T06:54:07;99450.31;;;11.90;100.00
47753;BME280;2038;51.728;6.674;2023-03-24T06:56:34;99454.03;;;11.98;100.00
47753;BME280;2038;51.728;6.674;2023-03-24T06:59:00;99455.53;;;11.93;100.00
47753;BME280;2038;51.728;6.674;2023-03-24T07:01:27;99450.53;;;11.96;100.00
47753;BME280;2038;51.728;6.674;2023-03-24T07:03:53;99459.38;;;12.04;100.00
47753;BME280;2038;51.728;6.674;2023-03-24T07:06:19;99454.44;;;12.08;100.00
47753;BME280;2038;51.728;6.674;2023-03-24T07:08:48;99450.81;;;12.02;100.00
47753;BME280;2038;51.728;6.674;2023-03-24T07:11:15;99455.44;;;12.12;100.00
47753;BME280;2038;51.728;6.674;2023-03-24T07:13:42;99456.25;;;12.11;100.00
47753;BME280;2038;51.728;6.674;2023-03-24T07:16:08;99458.06;;;12.13;100.00
47753;BME280;2038;51.728;6.674;2023-03-24T07:18:34;99438.56;;;12.15;100.00
47753;BME280;2038;51.728;6.674;2023-03-24T07:21:00;99449.81;;;12.20;100.00
47753;BME280;2038;51.728;6.674;2023-03-24T07:23:27;99462.72;;;12.24;100.00
47753;BME280;2038;51.728;6.674;2023-03-24T07:25:53;99453.06;;;12.16;100.00
47753;BME280;2038;51.728;6.674;2023-03-24T07:28:19;99454.28;;;12.26;100.00
47753;BME280;2038;51.728;6.674;2023-03-24T07:30:46;99461.94;;;12.26;100.00
47753;BME280;2038;51.728;6.674;2023-03-24T07:33:12;99461.84;;;12.23;100.00
47753;BME280;2038;51.728;6.674;2023-03-24T07:35:39;99463.63;;;12.26;100.00
47753;BME280;2038;51.728;6.674;2023-03-24T07:38:05;99466.41;;;12.32;100.00
47753;BME280;2038;51.728;6.674;2023-03-24T07:40:32;99462.47;;;12.17;100.00
47753;BME280;2038;51.728;6.674;2023-03-24T07:43:01;99454.28;;;12.26;100.00
47753;BME280;2038;51.728;6.674;2023-03-24T07:45:31;99456.06;;;12.29;100.00
47753;BME280;2038;51.728;6.674;2023-03-24T07:47:58;99467.72;;;12.44;100.00
47753;BME280;2038;51.728;6.674;2023-03-24T07:50:27;99455.66;;;12.40;100.00
47753;BME280;2038;51.728;6.674;2023-03-24T07:52:54;99456.63;;;12.44;100.00
47753;BME280;2038;51.728;6.674;2023-03-24T07:55:20;99481.50;;;12.48;100.00
47753;BME280;2038;51.728;6.674;2023-03-24T07:57:47;99480.09;;;12.56;100.00
47753;BME280;2038;51.728;6.674;2023-03-24T08:00:16;99482.72;;;12.57;100.00
47753;BME280;2038;51.728;6.674;2023-03-24T08:02:45;99482.59;;;12.54;100.00
47753;BME280;2038;51.728;6.674;2023-03-24T08:05:12;99489.22;;;12.72;100.00
47753;BME280;2038;51.728;6.674;2023-03-24T08:07:47;99500.88;;;12.87;100.00
47753;BME280;2038;51.728;6.674;2023-03-24T08:10:19;99502.84;;;12.96;100.00
47753;BME280;2038;51.728;6.674;2023-03-24T08:12:48;99512.50;;;13.03;100.00
47753;BME280;2038;51.728;6.674;2023-03-24T08:15:14;99500.44;;;12.99;100.00
47753;BME280;2038;51.728;6.674;2023-03-24T08:17:41;99507.06;;;12.94;100.00
47753;BME280;2038;51.728;6.674;2023-03-24T08:20:09;99501.59;;;12.85;99.69
47753;BME280;2038;51.728;6.674;2023-03-24T08:22:40;99514.56;;;12.89;100.00
47753;BME280;2038;51.728;6.674;2023-03-24T08:25:09;99510.81;;;13.03;100.00
47753;BME280;2038;51.728;6.674;2023-03-24T08:27:38;99493.38;;;12.92;100.00
47753;BME280;2038;51.728;6.674;2023-03-24T08:30:07;99513.84;;;12.93;99.87
47753;BME280;2038;51.728;6.674;2023-03-24T08:32:35;99515.63;;;12.96;100.00
47753;BME280;2038;51.728;6.674;2023-03-24T08:35:02;99518.34;;;12.99;100.00
47753;BME280;2038;51.728;6.674;2023-03-24T08:37:30;99515.97;;;13.05;99.60
47753;BME280;2038;51.728;6.674;2023-03-24T08:39:56;99527.56;;;13.18;100.00
47753;BME280;2038;51.728;6.674;2023-03-24T08:42:24;99521.13;;;13.29;100.00
47753;BME280;2038;51.728;6.674;2023-03-24T08:44:51;99528.94;;;13.33;100.00
47753;BME280;2038;51.728;6.674;2023-03-24T08:47:17;99530.34;;;13.49;99.08
47753;BME280;2038;51.728;6.674;2023-03-24T08:49:43;99508.28;;;13.52;98.46
47753;BME280;2038;51.728;6.674;2023-03-24T08:52:10;99516.66;;;13.48;98.56
47753;BME280;2038;51.728;6.674;2023-03-24T08:54:36;99512.25;;;13.44;98.00
47753;BME280;2038;51.728;6.674;2023-03-24T08:57:02;99513.03;;;13.42;98.06
47753;BME280;2038;51.728;6.674;2023-03-24T08:59:29;99517.34;;;13.43;97.91
47753;BME280;2038;51.728;6.674;2023-03-24T09:01:55;99523.50;;;13.48;98.09
47753;BME280;2038;51.728;6.674;2023-03-24T09:04:21;99539.25;;;13.60;99.09
47753;BME280;2038;51.728;6.674;2023-03-24T09:06:47;99543.78;;;13.67;98.04
47753;BME280;2038;51.728;6.674;2023-03-24T09:09:14;99538.44;;;13.61;98.59
47753;BME280;2038;51.728;6.674;2023-03-24T09:11:41;99533.75;;;13.48;96.73
47753;BME280;2038;51.728;6.674;2023-03-24T09:14:07;99554.25;;;13.49;97.78
47753;BME280;2038;51.728;6.674;2023-03-24T09:16:33;99516.75;;;13.50;97.30
47753;BME280;2038;51.728;6.674;2023-03-24T09:18:59;99559.13;;;13.42;97.67
47753;BME280;2038;51.728;6.674;2023-03-24T09:21:26;99555.28;;;13.54;98.42
47753;BME280;2038;51.728;6.674;2023-03-24T09:23:52;99550.88;;;13.50;97.80
47753;BME280;2038;51.728;6.674;2023-03-24T09:26:18;99544.56;;;13.41;98.07
47753;BME280;2038;51.728;6.674;2023-03-24T09:28:45;99558.91;;;13.61;99.32
47753;BME280;2038;51.728;6.674;2023-03-24T09:31:11;99548.19;;;13.71;100.00
47753;BME280;2038;51.728;6.674;2023-03-24T09:33:37;99537.56;;;13.60;95.93
47753;BME280;2038;51.728;6.674;2023-03-24T09:36:04;99555.50;;;13.37;96.42
47753;BME280;2038;51.728;6.674;2023-03-24T09:38:31;99550.34;;;13.59;98.55
47753;BME280;2038;51.728;6.674;2023-03-24T09:41:00;99528.25;;;13.63;98.26
47753;BME280;2038;51.728;6.674;2023-03-24T09:43:56;99536.50;;;13.79;98.21
47753;BME280;2038;51.728;6.674;2023-03-24T09:46:44;99557.44;;;13.93;97.41
47753;BME280;2038;51.728;6.674;2023-03-24T09:49:23;99543.25;;;14.02;96.38
47753;BME280;2038;51.728;6.674;2023-03-24T09:51:59;99546.75;;;14.06;94.05
47753;BME280;2038;51.728;6.674;2023-03-24T09:55:00;99559.75;;;13.85;93.39
47753;BME280;2038;51.728;6.674;2023-03-24T09:57:37;99561.44;;;13.85;95.19
47753;BME280;2038;51.728;6.674;2023-03-24T10:00:30;99561.75;;;13.94;94.23
47753;BME280;2038;51.728;6.674;2023-03-24T10:03:00;99561.69;;;13.92;93.04
47753;BME280;2038;51.728;6.674;2023-03-24T10:05:44;99558.31;;;13.93;93.72
47753;BME280;2038;51.728;6.674;2023-03-24T10:08:28;99565.47;;;14.03;95.14
47753;BME280;2038;51.728;6.674;2023-03-24T10:22:44;99582.22;;;14.19;93.44
47753;BME280;2038;51.728;6.674;2023-03-24T10:25:54;99594.31;;;13.98;92.06
47753;BME280;2038;51.728;6.674;2023-03-24T10:28:49;99597.19;;;14.07;93.14
47753;BME280;2038;51.728;6.674;2023-03-24T10:31:19;99589.19;;;13.98;92.22
47753;BME280;2038;51.728;6.674;2023-03-24T10:33:54;99585.81;;;13.99;93.19
47753;BME280;2038;51.728;6.674;2023-03-24T10:36:20;99595.84;;;13.93;92.39
47753;BME280;2038;51.728;6.674;2023-03-24T10:38:48;99594.94;;;13.91;92.51
47753;BME280;2038;51.728;6.674;2023-03-24T10:41:25;99604.25;;;13.89;92.87
47753;BME280;2038;51.728;6.674;2023-03-24T10:43:55;99602.56;;;13.89;94.36
47753;BME280;2038;51.728;6.674;2023-03-24T10:46:29;99603.25;;;13.84;92.74
47753;BME280;2038;51.728;6.674;2023-03-24T10:51:44;99605.13;;;14.15;92.89
47753;BME280;2038;51.728;6.674;2023-03-24T10:54:26;99605.47;;;14.25;93.40
47753;BME280;2038;51.728;6.674;2023-03-24T10:57:01;99600.56;;;14.33;93.15
47753;BME280;2038;51.728;6.674;2023-03-24T10:59:37;99593.66;;;14.30;90.91
47753;BME280;2038;51.728;6.674;2023-03-24T11:02:25;99602.03;;;14.25;90.06
47753;BME280;2038;51.728;6.674;2023-03-24T11:05:00;99594.16;;;14.19;90.73
47753;BME280;2038;51.728;6.674;2023-03-24T11:07:40;99596.41;;;14.10;91.03
47753;BME280;2038;51.728;6.674;2023-03-24T11:12:38;99599.78;;;14.08;91.40
47753;BME280;2038;51.728;6.674;2023-03-24T11:15:19;99594.25;;;14.22;91.98
47753;BME280;2038;51.728;6.674;2023-03-24T11:17:55;99602.88;;;14.24;91.85
47753;BME280;2038;51.728;6.674;2023-03-24T11:20:28;99618.50;;;14.33;92.28
47753;BME280;2038;51.728;6.674;2023-03-24T11:23:07;99607.53;;;14.35;93.31
47753;BME280;2038;51.728;6.674;2023-03-24T11:28:28;99606.81;;;14.39;90.13
47753;BME280;2038;51.728;6.674;2023-03-24T11:31:06;99615.81;;;14.28;89.93
47753;BME280;2038;51.728;6.674;2023-03-24T11:33:45;99615.06;;;14.31;91.15
47753;BME280;2038;51.728;6.674;2023-03-24T11:39:09;99614.03;;;14.26;91.71
47753;BME280;2038;51.728;6.674;2023-03-24T11:42:14;99608.41;;;14.36;92.23
47753;BME280;2038;51.728;6.674;2023-03-24T11:47:32;99607.28;;;14.55;92.70
47753;BME280;2038;51.728;6.674;2023-03-24T11:50:19;99609.31;;;14.65;92.87
47753;BME280;2038;51.728;6.674;2023-03-24T11:53:14;99611.47;;;14.79;92.62
47753;BME280;2038;51.728;6.674;2023-03-24T11:55:59;99620.31;;;14.89;92.35
47753;BME280;2038;51.728;6.674;2023-03-24T12:07:01;99630.34;;;15.10;89.24
47753;BME280;2038;51.728;6.674;2023-03-24T12:10:28;99631.03;;;15.04;87.10
47753;BME280;2038;51.728;6.674;2023-03-24T12:15:55;99604.16;;;14.91;85.46
47753;BME280;2038;51.728;6.674;2023-03-24T12:24:41;99616.94;;;14.90;87.00
47753;BME280;2038;51.728;6.674;2023-03-24T12:27:36;99596.03;;;15.06;87.83
47753;BME280;2038;51.728;6.674;2023-03-24T12:33:44;99586.50;;;15.32;86.69
47753;BME280;2038;51.728;6.674;2023-03-24T12:36:38;99591.50;;;15.27;86.92
47753;BME280;2038;51.728;6.674;2023-03-24T12:39:29;99591.19;;;15.46;86.80
47753;BME280;2038;51.728;6.674;2023-03-24T12:42:13;99574.13;;;15.49;87.05
47753;BME280;2038;51.728;6.674;2023-03-24T12:47:48;99586.72;;;15.39;83.93
47753;BME280;2038;51.728;6.674;2023-03-24T12:50:58;99571.25;;;15.38;84.30
47753;BME280;2038;51.728;6.674;2023-03-24T12:53:54;99582.31;;;15.35;83.71
47753;BME280;2038;51.728;6.674;2023-03-24T12:57:01;99559.50;;;15.46;85.86
47753;BME280;2038;51.728;6.674;2023-03-24T12:59:40;99581.13;;;15.53;86.36
47753;BME280;2038;51.728;6.674;2023-03-24T13:05:30;99582.25;;;15.64;86.71
47753;BME280;2038;51.728;6.674;2023-03-24T13:08:14;99576.69;;;15.80;85.88
47753;BME280;2038;51.728;6.674;2023-03-24T13:10:49;99596.38;;;15.79;85.63
47753;BME280;2038;51.728;6.674;2023-03-24T13:13:22;99582.97;;;15.58;84.33
47753;BME280;2038;51.728;6.674;2023-03-24T13:16:06;99576.97;;;15.28;85.88
47753;BME280;2038;51.728;6.674;2023-03-24T13:18:40;99575.41;;;15.03;86.32
47753;BME280;2038;51.728;6.674;2023-03-24T13:21:21;99592.88;;;14.86;86.43
47753;BME280;2038;51.728;6.674;2023-03-24T13:24:06;99616.81;;;14.33;91.18
47753;BME280;2038;51.728;6.674;2023-03-24T13:30:12;99633.94;;;12.90;100.00
47753;BME280;2038;51.728;6.674;2023-03-24T13:32:50;99640.25;;;12.55;100.00
47753;BME280;2038;51.728;6.674;2023-03-24T13:38:17;99642.63;;;12.09;100.00
47753;BME280;2038;51.728;6.674;2023-03-24T13:40:52;99654.50;;;12.09;100.00
47753;BME280;2038;51.728;6.674;2023-03-24T13:43:28;99636.50;;;11.85;100.00
47753;BME280;2038;51.728;6.674;2023-03-24T13:46:04;99628.22;;;11.71;100.00
47753;BME280;2038;51.728;6.674;2023-03-24T13:48:40;99624.78;;;11.90;100.00
47753;BME280;2038;51.728;6.674;2023-03-24T13:56:31;99624.16;;;12.37;100.00
47753;BME280;2038;51.728;6.674;2023-03-24T13:59:07;99624.09;;;12.56;100.00
47753;BME280;2038;51.728;6.674;2023-03-24T14:05:40;99619.50;;;12.92;100.00
47753;BME280;2038;51.728;6.674;2023-03-24T14:14:25;99619.94;;;13.03;100.00
47753;BME280;2038;51.728;6.674;2023-03-24T14:22:28;99624.88;;;12.98;100.00
47753;BME280;2038;51.728;6.674;2023-03-24T14:25:21;99615.50;;;12.99;100.00
47753;BME280;2038;51.728;6.674;2023-03-24T14:28:20;99626.06;;;13.08;100.00
47753;BME280;2038;51.728;6.674;2023-03-24T14:31:00;99606.75;;;13.15;100.00
47753;BME280;2038;51.728;6.674;2023-03-24T14:33:44;99614.81;;;13.25;100.00
47753;BME280;2038;51.728;6.674;2023-03-24T14:36:33;99609.84;;;13.30;100.00
47753;BME280;2038;51.728;6.674;2023-03-24T14:39:49;99613.50;;;13.36;100.00
47753;BME280;2038;51.728;6.674;2023-03-24T14:42:27;99615.22;;;13.59;100.00
47753;BME280;2038;51.728;6.674;2023-03-24T14:48:02;99608.94;;;13.51;100.00
47753;BME280;2038;51.728;6.674;2023-03-24T14:50:37;99612.59;;;13.58;100.00
47753;BME280;2038;51.728;6.674;2023-03-24T14:53:11;99618.59;;;13.60;100.00
47753;BME280;2038;51.728;6.674;2023-03-24T14:55:44;99614.22;;;13.56;100.00
47753;BME280;2038;51.728;6.674;2023-03-24T14:58:31;99620.91;;;13.52;100.00
47753;BME280;2038;51.728;6.674;2023-03-24T15:01:04;99618.56;;;13.58;100.00
47753;BME280;2038;51.728;6.674;2023-03-24T15:03:54;99606.50;;;13.54;100.00
47753;BME280;2038;51.728;6.674;2023-03-24T15:06:29;99616.34;;;13.68;100.00
47753;BME280;2038;51.728;6.674;2023-03-24T15:08:58;99621.41;;;13.66;100.00
47753;BME280;2038;51.728;6.674;2023-03-24T15:11:33;99616.88;;;13.59;100.00
47753;BME280;2038;51.728;6.674;2023-03-24T15:14:10;99622.81;;;13.58;100.00
47753;BME280;2038;51.728;6.674;2023-03-24T15:16:59;99605.88;;;13.62;100.00
47753;BME280;2038;51.728;6.674;2023-03-24T15:19:53;99605.97;;;13.65;100.00
47753;BME280;2038;51.728;6.674;2023-03-24T15:22:21;99587.53;;;13.49;100.00
47753;BME280;2038;51.728;6.674;2023-03-24T15:24:49;99589.81;;;13.42;100.00
47753;BME280;2038;51.728;6.674;2023-03-24T15:27:22;99590.47;;;13.36;100.00
47753;BME280;2038;51.728;6.674;2023-03-24T15:29:56;99583.28;;;13.50;100.00
47753;BME280;2038;51.728;6.674;2023-03-24T15:32:26;99583.72;;;13.62;100.00
47753;BME280;2038;51.728;6.674;2023-03-24T15:35:02;99583.88;;;13.67;100.00
47753;BME280;2038;51.728;6.674;2023-03-24T15:37:35;99586.59;;;13.71;99.14
47753;BME280;2038;51.728;6.674;2023-03-24T15:42:56;99593.53;;;13.50;98.09
47753;BME280;2038;51.728;6.674;2023-03-24T15:45:51;99599.06;;;13.62;98.50
47753;BME280;2038;51.728;6.674;2023-03-24T15:48:24;99588.53;;;13.78;99.81